Time;durP1;ratioP1;P1;durP2;ratioP2;P2;SDS_P1;SDS_P2;PMS_P1;PMS_P2;Temp;Humidity;BMP_temperature;BMP_pressure;BME280_temperature;BME280_humidity;BME280_pressure;Samples;Min_cycle;Max_cycle;Signal;HPM_P1;HPM_P2
2023/08/30 00:00:17;;;;;;;4.40;3.80;;;;;;;12.66;86.86;95010.78;4957359;29;20193;-85
2023/08/30 00:02:44;;;;;;;4.23;3.83;;;;;;;12.69;86.71;95007.03;4956994;29;20209;-85
2023/08/30 00:05:10;;;;;;;4.07;3.77;;;;;;;12.73;86.76;95001.31;4939243;28;20194;-84
2023/08/30 00:07:35;;;;;;;4.30;3.90;;;;;;;12.70;87.18;94998.22;4954288;29;20248;-86
2023/08/30 00:10:01;;;;;;;4.47;4.10;;;;;;;12.71;86.89;94997.25;4939246;29;20216;-85
2023/08/30 00:12:27;;;;;;;4.33;4.03;;;;;;;12.62;88.22;94998.28;4953537;28;20389;-85
2023/08/30 00:14:52;;;;;;;5.30;4.60;;;;;;;12.68;87.78;95001.00;4941144;29;20205;-86
2023/08/30 00:17:19;;;;;;;7.87;5.00;;;;;;;12.65;87.95;94995.34;4955737;29;20268;-85
2023/08/30 00:19:45;;;;;;;4.93;4.47;;;;;;;12.64;88.15;95002.34;4955012;28;20281;-85
2023/08/30 00:22:11;;;;;;;5.87;4.73;;;;;;;12.61;88.37;95002.69;4956288;28;20715;-86
2023/08/30 00:24:37;;;;;;;6.53;4.33;;;;;;;12.58;88.92;94999.63;4955182;29;20200;-86
2023/08/30 00:27:05;;;;;;;5.70;4.67;;;;;;;12.58;89.01;95002.22;4939778;29;20287;-86
2023/08/30 00:29:39;;;;;;;4.50;4.20;;;;;;;12.62;88.74;95001.69;4955236;28;20239;-87
2023/08/30 00:32:07;;;;;;;4.50;4.10;;;;;;;12.71;87.96;94992.84;4954099;28;20254;-85
2023/08/30 00:34:33;;;;;;;4.30;4.00;;;;;;;12.66;88.57;94992.56;4955308;28;20306;-87
2023/08/30 00:36:58;;;;;;;4.63;4.33;;;;;;;12.66;88.69;94992.56;4954455;28;20250;-86
2023/08/30 00:39:26;;;;;;;4.60;4.20;;;;;;;12.66;88.54;94991.75;4955219;28;20212;-85
2023/08/30 00:42:00;;;;;;;6.60;4.20;;;;;;;12.65;88.54;94990.94;4953150;28;20192;-86
2023/08/30 00:44:26;;;;;;;5.83;4.53;;;;;;;12.62;88.85;94980.84;4955022;29;20279;-85
2023/08/30 00:46:54;;;;;;;4.67;4.20;;;;;;;12.57;89.48;94993.59;4954445;28;20252;-85
2023/08/30 00:49:19;;;;;;;4.47;4.10;;;;;;;12.65;88.94;94988.34;4949165;28;20220;-85
2023/08/30 00:51:47;;;;;;;4.90;4.40;;;;;;;12.49;89.42;94972.81;4938010;29;20220;-85
2023/08/30 00:54:18;;;;;;;4.77;4.27;;;;;;;12.55;89.42;94976.53;4955347;28;20660;-86
2023/08/30 00:56:46;;;;;;;4.90;3.90;;;;;;;12.48;89.49;94972.00;4952444;28;20280;-86
2023/08/30 00:59:12;;;;;;;4.07;3.77;;;;;;;12.51;89.21;94975.25;4961560;28;20296;-86
2023/08/30 01:01:38;;;;;;;5.33;4.30;;;;;;;12.53;88.42;94974.09;4939095;28;20291;-86
2023/08/30 01:04:04;;;;;;;4.20;3.90;;;;;;;12.52;88.79;94974.25;4953686;28;20839;-86
2023/08/30 01:06:30;;;;;;;6.40;3.60;;;;;;;12.48;88.16;94973.81;4954202;28;20292;-86
2023/08/30 01:09:01;;;;;;;4.80;3.90;;;;;;;12.45;88.08;94974.94;4938425;29;20224;-83
2023/08/30 01:11:38;;;;;;;3.50;3.30;;;;;;;12.40;87.88;94968.66;4938199;28;20267;-85
2023/08/30 01:14:33;;;;;;;3.73;3.33;;;;;;;12.36;87.67;94969.97;4954394;29;20275;-86
2023/08/30 01:17:00;;;;;;;3.57;3.37;;;;;;;12.33;87.40;94970.31;4938136;28;20240;-84
2023/08/30 01:20:00;;;;;;;4.00;3.60;;;;;;;12.34;87.16;94964.13;4954053;28;20702;-85
2023/08/30 01:22:53;;;;;;;4.43;3.50;;;;;;;12.28;87.20;94970.00;4954759;28;20185;-86
2023/08/30 01:25:35;;;;;;;3.80;3.10;;;;;;;12.35;86.52;94968.34;4970732;28;20191;-85
2023/08/30 01:28:05;;;;;;;3.43;3.10;;;;;;;12.26;86.68;94964.16;4962164;28;20225;-86
2023/08/30 01:30:32;;;;;;;4.27;3.43;;;;;;;12.31;86.63;94967.88;4953050;28;20271;-84
2023/08/30 01:33:00;;;;;;;3.20;3.00;;;;;;;12.32;86.49;94963.50;4937918;28;20317;-86
2023/08/30 01:35:30;;;;;;;4.07;3.07;;;;;;;12.31;86.15;94964.47;4953963;29;20185;-85
2023/08/30 01:37:56;;;;;;;3.30;2.97;;;;;;;12.34;85.92;94966.72;4954020;28;20185;-86
2023/08/30 01:40:22;;;;;;;4.60;3.30;;;;;;;12.24;86.14;94958.34;4938962;28;20196;-84
2023/08/30 01:42:48;;;;;;;3.73;3.43;;;;;;;12.30;86.29;94949.84;4955684;29;20247;-84
2023/08/30 01:45:14;;;;;;;3.53;3.23;;;;;;;12.23;86.80;94954.91;4934248;29;20242;-84
2023/08/30 01:47:41;;;;;;;4.60;3.30;;;;;;;12.28;85.77;94951.78;4952797;28;20193;-85
2023/08/30 01:50:07;;;;;;;3.50;3.20;;;;;;;12.28;85.99;94951.78;4954048;28;20639;-84
2023/08/30 01:52:35;;;;;;;4.00;3.33;;;;;;;12.29;85.89;94956.03;4937249;29;20213;-85
2023/08/30 01:55:02;;;;;;;3.47;3.17;;;;;;;12.19;86.11;94964.03;4954271;28;20222;-85
2023/08/30 01:57:27;;;;;;;2.90;2.70;;;;;;;12.28;85.45;94952.63;4953663;28;20209;-84
2023/08/30 01:59:53;;;;;;;3.60;3.30;;;;;;;12.29;85.24;94956.84;4953368;28;20213;-85
2023/08/30 02:02:24;;;;;;;2.97;2.77;;;;;;;12.33;85.17;94957.31;4953010;28;20276;-85
2023/08/30 02:04:49;;;;;;;3.73;3.43;;;;;;;12.25;85.49;94955.56;4937864;29;20232;-83
2023/08/30 02:07:19;;;;;;;5.13;3.20;;;;;;;12.23;85.92;94957.53;4953878;29;20208;-85
2023/08/30 02:09:50;;;;;;;3.43;3.13;;;;;;;12.26;86.10;94948.56;4954025;28;20220;-85
2023/08/30 02:12:17;;;;;;;3.50;3.20;;;;;;;12.22;86.39;94953.31;4953862;28;20405;-83
2023/08/30 02:14:48;;;;;;;4.47;3.27;;;;;;;12.23;86.84;94956.72;4953418;29;20235;-85
2023/08/30 02:17:17;;;;;;;3.50;3.20;;;;;;;12.12;87.58;94947.50;4933684;29;20208;-85
2023/08/30 02:19:44;;;;;;;3.43;3.13;;;;;;;12.13;87.73;94951.72;4952830;28;20205;-84
2023/08/30 02:22:09;;;;;;;3.20;3.00;;;;;;;12.09;87.71;94946.03;4938785;28;20548;-84
2023/08/30 02:24:34;;;;;;;3.50;3.20;;;;;;;12.10;88.19;94955.50;4955127;28;20193;-83
2023/08/30 02:27:03;;;;;;;3.50;3.20;;;;;;;12.17;87.60;94950.38;4953945;28;20185;-83
2023/08/30 02:29:31;;;;;;;3.60;3.30;;;;;;;12.06;88.00;94948.19;4952345;28;20239;-83
2023/08/30 02:31:56;;;;;;;3.47;3.17;;;;;;;12.09;88.16;94951.25;4938078;28;20209;-83
2023/08/30 02:34:22;;;;;;;5.43;3.57;;;;;;;12.03;89.12;94958.94;4953608;28;20185;-84
2023/08/30 02:36:47;;;;;;;4.20;3.60;;;;;;;11.97;89.25;94954.41;4935641;28;20185;-84
2023/08/30 02:39:14;;;;;;;3.73;3.43;;;;;;;12.03;88.94;94954.56;4949149;28;20209;-84
2023/08/30 02:41:40;;;;;;;3.90;3.57;;;;;;;12.05;88.70;94957.78;4954728;29;20224;-84
2023/08/30 02:44:07;;;;;;;3.53;3.30;;;;;;;12.06;89.26;94961.19;4954272;29;20276;-84
2023/08/30 02:46:33;;;;;;;4.30;3.47;;;;;;;12.07;89.58;94960.22;4954083;28;20190;-84
2023/08/30 02:48:58;;;;;;;3.33;3.03;;;;;;;12.07;89.26;94966.22;4939272;28;20212;-85
2023/08/30 02:51:23;;;;;;;4.17;3.30;;;;;;;12.11;88.82;94962.31;4938594;29;20703;-85
2023/08/30 02:53:49;;;;;;;4.30;3.60;;;;;;;12.11;89.30;94957.13;4952138;28;20197;-84
2023/08/30 02:56:14;;;;;;;3.63;3.37;;;;;;;12.17;89.17;94958.19;4954443;28;20200;-83
2023/08/30 02:58:40;;;;;;;3.30;3.10;;;;;;;12.23;88.92;94964.53;4941745;28;20241;-84
2023/08/30 03:01:05;;;;;;;4.83;3.60;;;;;;;12.28;88.04;94962.19;4955906;29;20193;-85
2023/08/30 03:03:30;;;;;;;4.40;3.70;;;;;;;12.27;88.44;94957.97;4956038;29;20216;-84
2023/08/30 03:05:56;;;;;;;4.03;3.73;;;;;;;12.27;88.04;94950.16;4937100;28;20837;-84
2023/08/30 03:08:21;;;;;;;3.90;3.50;;;;;;;12.32;88.03;94950.47;4944687;28;20216;-83
2023/08/30 03:10:47;;;;;;;4.13;3.83;;;;;;;12.23;88.36;94948.91;4955971;28;20189;-83
2023/08/30 03:13:12;;;;;;;3.87;3.33;;;;;;;12.24;87.34;94956.53;4936596;28;20591;-83
2023/08/30 03:15:37;;;;;;;4.27;3.40;;;;;;;12.32;87.26;94951.28;4939808;29;20185;-83
2023/08/30 03:18:03;;;;;;;3.73;3.43;;;;;;;12.47;86.19;94954.78;4939525;28;20648;-84
2023/08/30 03:20:29;;;;;;;4.00;3.70;;;;;;;12.40;86.45;94945.22;4971641;28;20666;-83
2023/08/30 03:23:00;;;;;;;4.23;3.70;;;;;;;12.39;86.76;94949.63;4938929;29;20655;-84
2023/08/30 03:25:28;;;;;;;3.77;3.53;;;;;;;12.50;85.97;94955.41;4954602;28;20208;-83
2023/08/30 03:27:54;;;;;;;3.80;3.37;;;;;;;12.46;86.07;94952.34;4938213;28;20197;-85
2023/08/30 03:30:19;;;;;;;3.57;3.27;;;;;;;12.50;85.86;94942.38;4959061;28;20666;-85
2023/08/30 03:32:45;;;;;;;4.73;3.37;;;;;;;12.55;85.90;94942.69;4953803;29;20232;-83
2023/08/30 03:35:14;;;;;;;3.70;3.50;;;;;;;12.60;85.91;94942.94;4937959;28;20192;-84
2023/08/30 03:37:40;;;;;;;3.33;3.10;;;;;;;12.55;86.33;94948.69;4955412;29;20189;-84
2023/08/30 03:40:06;;;;;;;4.23;3.13;;;;;;;12.63;85.77;94940.81;4955487;28;20217;-84
2023/08/30 03:42:31;;;;;;;4.00;3.70;;;;;;;12.59;86.17;94944.75;4954875;29;20188;-84
2023/08/30 03:44:57;;;;;;;3.87;3.50;;;;;;;12.54;86.80;94941.03;4951979;29;20185;-83
2023/08/30 03:47:22;;;;;;;3.57;3.27;;;;;;;12.61;86.82;94941.97;4954161;28;20193;-84
2023/08/30 03:49:48;;;;;;;3.90;3.50;;;;;;;12.55;87.70;94932.25;4954365;28;20224;-86
2023/08/30 03:52:13;;;;;;;3.87;3.57;;;;;;;12.62;87.08;94939.19;4954438;29;20209;-83
2023/08/30 03:54:38;;;;;;;4.03;3.73;;;;;;;12.59;87.71;94939.53;4954272;29;20236;-85
2023/08/30 03:57:04;;;;;;;3.87;3.60;;;;;;;12.60;88.08;94940.34;4953891;28;20189;-83
2023/08/30 03:59:29;;;;;;;3.73;3.30;;;;;;;12.61;87.52;94945.38;4954371;28;20205;-83
2023/08/30 04:01:55;;;;;;;3.57;3.37;;;;;;;12.65;86.84;94940.66;4955370;29;20236;-83
2023/08/30 04:04:23;;;;;;;3.60;3.40;;;;;;;12.62;88.15;94941.78;4955256;28;20200;-83
2023/08/30 04:06:48;;;;;;;3.80;3.50;;;;;;;12.58;87.67;94943.13;4950556;28;20599;-84
2023/08/30 04:09:13;;;;;;;3.90;3.60;;;;;;;12.58;87.35;94942.31;4955078;28;20248;-83
2023/08/30 04:11:39;;;;;;;5.20;3.17;;;;;;;12.62;86.97;94936.56;4956493;28;20209;-83
2023/08/30 04:14:04;;;;;;;3.37;3.17;;;;;;;12.66;86.56;94935.25;4955128;28;20233;-85
2023/08/30 04:16:29;;;;;;;4.33;3.37;;;;;;;12.66;87.16;94940.47;4954860;29;20200;-83
2023/08/30 04:18:55;;;;;;;3.37;3.17;;;;;;;12.69;86.48;94940.09;4954465;28;20209;-84
2023/08/30 04:21:20;;;;;;;3.60;3.30;;;;;;;12.69;86.45;94942.72;4939250;28;20189;-84
2023/08/30 04:23:46;;;;;;;5.03;3.40;;;;;;;12.72;86.24;94944.97;4953777;28;20225;-83
2023/08/30 04:26:11;;;;;;;4.20;2.60;;;;;;;12.67;87.04;94942.09;4937250;28;20185;-84
2023/08/30 04:28:36;;;;;;;3.60;3.23;;;;;;;12.65;87.08;94941.44;4951175;28;20287;-85
2023/08/30 04:31:02;;;;;;;4.17;3.20;;;;;;;12.64;87.19;94939.84;4952596;28;20185;-83
2023/08/30 04:33:27;;;;;;;4.00;3.43;;;;;;;12.62;87.92;94939.19;4953444;29;20185;-84
2023/08/30 04:35:53;;;;;;;4.03;3.63;;;;;;;12.66;88.12;94945.69;4939777;29;20204;-84
2023/08/30 04:38:20;;;;;;;3.60;3.30;;;;;;;12.68;87.58;94943.69;4937579;29;20284;-83
2023/08/30 04:40:45;;;;;;;3.43;3.23;;;;;;;12.62;87.78;94944.38;4953649;28;20192;-85
2023/08/30 04:43:11;;;;;;;5.97;3.10;;;;;;;12.70;87.19;94944.31;4953299;28;20185;-84
2023/08/30 04:45:36;;;;;;;6.73;3.90;;;;;;;12.71;86.95;94943.34;4937995;28;20192;-83
2023/08/30 04:48:02;;;;;;;5.93;3.37;;;;;;;12.70;87.09;94930.50;4937136;28;20216;-83
2023/08/30 04:50:27;;;;;;;3.80;3.50;;;;;;;12.75;86.89;94938.59;4954723;28;20201;-82
2023/08/30 04:52:52;;;;;;;3.63;3.33;;;;;;;12.81;87.10;94944.88;4953289;28;20275;-84
2023/08/30 04:55:18;;;;;;;5.60;3.33;;;;;;;12.85;86.92;94940.97;4953561;28;20647;-82
2023/08/30 04:57:44;;;;;;;3.37;3.10;;;;;;;12.83;86.65;94942.94;4952902;28;20193;-84
2023/08/30 05:00:11;;;;;;;3.63;3.33;;;;;;;12.80;86.80;94946.69;4952347;28;20671;-82
2023/08/30 05:02:37;;;;;;;3.63;3.33;;;;;;;12.82;87.05;94943.94;4952166;28;20559;-84
2023/08/30 05:05:02;;;;;;;3.53;3.17;;;;;;;12.91;86.41;94945.47;4949487;28;20189;-83
2023/08/30 05:07:28;;;;;;;3.30;3.10;;;;;;;12.86;86.19;94945.19;4968452;28;20185;-83
2023/08/30 05:09:53;;;;;;;3.90;3.43;;;;;;;12.93;86.21;94941.69;4949450;28;20233;-83
2023/08/30 05:12:18;;;;;;;3.60;3.30;;;;;;;12.93;86.12;94948.72;4952792;28;20208;-82
2023/08/30 05:14:44;;;;;;;4.23;3.43;;;;;;;12.94;85.95;94951.13;4951532;28;20201;-83
2023/08/30 05:17:09;;;;;;;3.63;3.40;;;;;;;13.02;85.46;94952.88;4952077;28;20197;-83
2023/08/30 05:19:34;;;;;;;3.77;3.50;;;;;;;13.05;86.30;94949.91;4949585;28;20237;-83
2023/08/30 05:22:00;;;;;;;3.67;3.10;;;;;;;13.06;85.86;94948.91;4936871;29;20634;-83
2023/08/30 05:24:26;;;;;;;3.53;3.20;;;;;;;12.96;85.75;94945.75;4935538;28;20185;-83
2023/08/30 05:26:52;;;;;;;3.67;3.37;;;;;;;13.02;85.55;94942.44;4951659;28;20193;-83
2023/08/30 05:29:20;;;;;;;3.83;3.53;;;;;;;13.17;85.58;94945.09;4952804;28;20558;-85
2023/08/30 05:31:46;;;;;;;3.80;3.43;;;;;;;13.25;85.40;94951.06;4950606;29;20213;-82
2023/08/30 05:34:11;;;;;;;3.83;3.53;;;;;;;13.30;85.20;94953.91;4952163;28;20189;-82
2023/08/30 05:36:36;;;;;;;3.70;3.40;;;;;;;13.41;84.34;94963.09;4951593;29;20209;-83
2023/08/30 05:39:03;;;;;;;3.40;3.17;;;;;;;13.43;84.35;94947.25;4935852;28;20237;-81
2023/08/30 05:41:28;;;;;;;4.53;3.47;;;;;;;13.50;84.24;94950.78;4951144;28;20185;-79
2023/08/30 05:43:54;;;;;;;3.87;3.57;;;;;;;13.59;84.51;94952.31;4935958;29;20224;-79
2023/08/30 05:46:22;;;;;;;3.80;3.50;;;;;;;13.65;84.02;94950.78;4933334;29;20663;-82
2023/08/30 05:48:47;;;;;;;4.93;3.50;;;;;;;13.67;84.35;94944.38;4951443;28;20209;-82
2023/08/30 05:51:13;;;;;;;4.77;3.90;;;;;;;13.46;84.03;94950.34;4952070;29;20542;-83
2023/08/30 05:53:38;;;;;;;4.30;3.27;;;;;;;13.52;83.61;94959.25;4935644;28;20200;-82
2023/08/30 05:56:03;;;;;;;3.93;3.63;;;;;;;13.57;83.80;94954.28;4952353;28;20185;-82
2023/08/30 05:58:29;;;;;;;4.37;3.60;;;;;;;13.50;84.50;94953.38;4950802;28;20213;-83
2023/08/30 06:00:56;;;;;;;3.33;3.07;;;;;;;13.48;84.09;94950.16;4947411;29;20228;-84
2023/08/30 06:03:21;;;;;;;4.17;3.77;;;;;;;13.56;84.32;94957.91;4950916;28;20185;-83
2023/08/30 06:05:48;;;;;;;4.93;3.53;;;;;;;13.40;84.29;94953.66;4950252;29;20196;-83
2023/08/30 06:08:13;;;;;;;3.77;3.47;;;;;;;13.41;84.02;94957.88;4952175;28;20840;-82
2023/08/30 06:10:39;;;;;;;3.90;3.60;;;;;;;13.56;83.26;94958.69;4936504;29;20735;-84
2023/08/30 06:13:04;;;;;;;3.83;3.50;;;;;;;13.72;82.81;94956.91;4950767;28;20298;-83
2023/08/30 06:15:29;;;;;;;5.17;3.83;;;;;;;13.67;82.55;94965.25;4951459;29;20195;-85
2023/08/30 06:17:55;;;;;;;4.30;3.80;;;;;;;13.76;82.56;94964.19;4953213;28;20189;-83
2023/08/30 06:20:20;;;;;;;4.67;4.20;;;;;;;13.81;82.45;94964.44;4951922;28;20180;-84
2023/08/30 06:22:45;;;;;;;4.40;4.10;;;;;;;13.87;81.66;94962.94;4952351;28;20323;-82
2023/08/30 06:25:11;;;;;;;4.67;4.37;;;;;;;13.94;81.83;94963.00;4953082;28;20204;-83
2023/08/30 06:27:43;;;;;;;4.37;4.07;;;;;;;14.04;81.74;94958.28;4950347;28;20212;-82
2023/08/30 06:30:09;;;;;;;4.43;4.13;;;;;;;13.98;82.04;94966.88;4933757;29;20197;-83
2023/08/30 06:32:34;;;;;;;5.30;4.90;;;;;;;14.11;82.31;94961.78;4954579;29;20271;-83
2023/08/30 06:35:00;;;;;;;5.37;4.90;;;;;;;14.18;81.35;94958.25;4937917;28;20185;-84
2023/08/30 06:37:25;;;;;;;5.27;4.80;;;;;;;14.27;81.41;94958.97;4938530;28;20189;-83
2023/08/30 06:39:50;;;;;;;6.10;5.53;;;;;;;14.46;80.46;94960.19;4939583;28;20588;-83
2023/08/30 06:42:16;;;;;;;5.10;4.60;;;;;;;14.58;80.02;94957.91;4938708;28;20200;-83
2023/08/30 06:44:41;;;;;;;4.57;4.27;;;;;;;14.71;80.14;94958.03;4955001;28;20193;-83
2023/08/30 06:47:06;;;;;;;5.43;4.90;;;;;;;14.78;79.38;94958.91;4956486;29;20224;-79
2023/08/30 06:49:32;;;;;;;4.90;4.50;;;;;;;14.92;79.24;94958.00;4958369;28;20205;-80
2023/08/30 06:51:57;;;;;;;5.53;5.00;;;;;;;14.99;78.93;94956.25;4957496;28;20236;-80
2023/08/30 06:54:22;;;;;;;5.03;4.27;;;;;;;14.86;79.00;94955.34;4957575;29;20196;-79
2023/08/30 06:56:58;;;;;;;5.20;4.80;;;;;;;15.03;78.27;94951.47;4955041;28;20560;-81
2023/08/30 06:59:24;;;;;;;5.43;4.93;;;;;;;15.19;78.03;94955.59;4932773;29;20216;-82
2023/08/30 07:01:49;;;;;;;5.68;5.18;;;;;;;15.25;77.61;94949.63;4954857;28;20181;-81
2023/08/30 07:04:15;;;;;;;5.32;4.82;;;;;;;15.16;76.91;94951.56;4953606;28;20643;-80
2023/08/30 07:06:40;;;;;;;5.40;4.88;;;;;;;15.28;76.95;94944.00;4953866;28;20192;-81
2023/08/30 07:09:06;;;;;;;4.72;4.35;;;;;;;15.35;76.09;94944.84;4954904;28;20241;-80
2023/08/30 07:11:31;;;;;;;4.88;4.47;;;;;;;15.41;76.15;94940.66;4936747;29;20679;-81
2023/08/30 07:13:57;;;;;;;5.55;5.10;;;;;;;15.60;76.00;94945.22;4956723;28;20252;-81
2023/08/30 07:16:22;;;;;;;5.32;4.68;;;;;;;15.94;75.13;94940.97;4955562;29;20193;-82
2023/08/30 07:18:47;;;;;;;5.68;4.60;;;;;;;16.17;73.96;94944.09;4953595;28;20221;-82
2023/08/30 07:21:13;;;;;;;4.32;3.92;;;;;;;16.12;72.94;94949.91;4936254;29;20192;-81
2023/08/30 07:23:38;;;;;;;4.85;4.45;;;;;;;16.07;73.51;94943.63;4953997;29;20608;-80
2023/08/30 07:26:04;;;;;;;4.90;4.40;;;;;;;15.98;72.99;94940.38;4953449;29;20193;-81
2023/08/30 07:28:29;;;;;;;4.63;4.22;;;;;;;16.40;72.12;94936.69;4965930;28;20209;-81
2023/08/30 07:31:02;;;;;;;5.10;4.60;;;;;;;16.52;71.77;94942.19;4951046;29;20189;-81
2023/08/30 07:33:27;;;;;;;3.97;3.63;;;;;;;16.77;71.49;94931.94;4957216;29;20198;-81
2023/08/30 07:35:53;;;;;;;4.55;4.10;;;;;;;16.26;71.63;94932.44;4963160;28;20181;-81
2023/08/30 07:38:19;;;;;;;4.90;4.50;;;;;;;16.45;70.93;94937.91;4955987;28;20213;-81
2023/08/30 07:40:44;;;;;;;4.82;4.28;;;;;;;16.60;71.50;94930.66;4956769;28;20236;-82
2023/08/30 07:43:09;;;;;;;5.45;4.05;;;;;;;16.42;70.89;94937.28;4954203;28;20705;-82
2023/08/30 07:45:34;;;;;;;4.65;4.25;;;;;;;16.55;69.95;94936.53;4958786;29;20196;-81
2023/08/30 07:48:00;;;;;;;4.18;3.88;;;;;;;16.80;70.17;94938.63;4960662;28;20240;-82
2023/08/30 07:50:25;;;;;;;4.68;4.00;;;;;;;16.73;70.42;94924.69;4961647;29;20277;-81
2023/08/30 07:52:50;;;;;;;3.90;3.60;;;;;;;16.77;69.67;94929.31;4956088;29;20205;-81
2023/08/30 07:55:16;;;;;;;4.43;3.53;;;;;;;16.95;69.18;94929.53;4957481;28;20185;-80
2023/08/30 07:57:41;;;;;;;4.40;4.00;;;;;;;17.17;66.70;94926.69;4959718;28;20208;-81
2023/08/30 08:00:07;;;;;;;4.28;3.90;;;;;;;16.90;68.14;94928.53;4958997;28;20724;-82
2023/08/30 08:02:33;;;;;;;3.78;3.47;;;;;;;17.55;65.77;94938.13;4959251;28;20193;-82
2023/08/30 08:04:58;;;;;;;5.07;3.70;;;;;;;17.27;67.07;94938.38;4958033;28;20196;-80
2023/08/30 08:07:24;;;;;;;4.28;3.97;;;;;;;17.48;66.61;94941.78;4939241;29;20209;-81
2023/08/30 08:09:49;;;;;;;4.95;3.55;;;;;;;17.62;66.90;94937.34;4959230;28;20233;-81
2023/08/30 08:12:14;;;;;;;4.00;3.70;;;;;;;17.92;64.40;94942.91;4958104;29;20276;-80
2023/08/30 08:14:40;;;;;;;3.85;3.55;;;;;;;18.33;64.69;94948.63;4955111;29;20229;-82
2023/08/30 08:17:05;;;;;;;4.18;3.80;;;;;;;18.32;64.01;94954.88;4955593;28;20226;-81
2023/08/30 08:19:30;;;;;;;4.28;3.65;;;;;;;18.52;64.56;94946.09;4938760;28;20344;-82
2023/08/30 08:21:56;;;;;;;5.20;3.53;;;;;;;18.56;62.70;94955.19;4954940;28;20215;-80
2023/08/30 08:24:21;;;;;;;4.18;3.88;;;;;;;17.57;63.82;94951.06;4953337;29;20185;-80
2023/08/30 08:26:46;;;;;;;3.95;3.55;;;;;;;18.33;61.85;94950.44;4951024;29;20271;-81
2023/08/30 08:29:12;;;;;;;4.95;3.63;;;;;;;18.39;62.53;94953.03;4953483;28;20220;-81
2023/08/30 08:31:37;;;;;;;3.67;3.38;;;;;;;18.36;62.34;94950.81;4952987;28;20257;-81
2023/08/30 08:34:10;;;;;;;3.55;3.25;;;;;;;18.83;60.79;94950.59;4953656;28;20208;-82
2023/08/30 08:36:39;;;;;;;4.43;3.42;;;;;;;18.74;62.55;94954.50;4937010;29;20228;-81
2023/08/30 08:39:06;;;;;;;3.88;3.50;;;;;;;18.65;63.56;94962.63;4958001;28;20204;-82
2023/08/30 08:41:52;;;;;;;3.90;3.10;;;;;;;19.10;61.25;94954.63;4956158;29;20188;-80
2023/08/30 08:44:19;;;;;;;11.77;8.57;;;;;;;18.98;62.36;94955.53;4953639;28;20197;-81
2023/08/30 08:46:45;;;;;;;3.33;3.13;;;;;;;19.42;60.56;94955.34;4952352;28;20195;-81
2023/08/30 08:49:15;;;;;;;3.90;3.60;;;;;;;19.24;60.84;94955.31;4953046;28;20219;-83
2023/08/30 08:51:42;;;;;;;7.40;3.55;;;;;;;19.27;59.80;94959.38;4952832;29;20217;-82
2023/08/30 08:54:09;;;;;;;3.45;3.15;;;;;;;19.51;60.42;94950.63;4950907;28;21164;-81
2023/08/30 08:56:34;;;;;;;3.80;3.47;;;;;;;19.54;56.57;94955.47;4952473;28;20244;-81
2023/08/30 08:59:00;;;;;;;3.42;3.15;;;;;;;19.73;58.05;94953.69;4949636;28;20212;-83
2023/08/30 09:01:25;;;;;;;3.65;3.35;;;;;;;19.99;57.50;94961.31;4936387;29;20236;-82
2023/08/30 09:03:51;;;;;;;3.22;2.97;;;;;;;20.21;56.91;94955.56;4952641;28;20236;-82
2023/08/30 09:06:16;;;;;;;3.72;3.08;;;;;;;20.12;57.49;94957.69;4936157;28;20252;-83
2023/08/30 09:08:41;;;;;;;3.97;3.53;;;;;;;19.81;60.22;94961.31;4952600;28;20236;-82
2023/08/30 09:11:07;;;;;;;3.78;3.33;;;;;;;20.05;59.53;94960.44;4952842;29;20641;-82
2023/08/30 09:13:32;;;;;;;3.38;3.17;;;;;;;20.42;57.02;94963.03;4952553;28;20199;-83
2023/08/30 09:15:58;;;;;;;4.85;3.10;;;;;;;19.97;59.41;94962.56;4952648;28;20224;-84
2023/08/30 09:18:27;;;;;;;3.90;3.13;;;;;;;20.65;56.63;94963.13;4952693;28;20291;-82
2023/08/30 09:20:53;;;;;;;3.35;2.60;;;;;;;20.85;55.67;94951.53;4951207;29;20566;-82
2023/08/30 09:23:21;;;;;;;3.25;2.92;;;;;;;20.79;54.97;94960.31;4952310;28;20185;-82
2023/08/30 09:25:47;;;;;;;3.42;3.22;;;;;;;20.40;55.07;94957.16;4945238;29;20363;-82
2023/08/30 09:28:12;;;;;;;4.15;3.67;;;;;;;19.97;54.68;94963.38;4951840;28;20284;-82
2023/08/30 09:30:39;;;;;;;3.65;3.35;;;;;;;19.39;55.67;94961.06;4952248;29;20290;-83
2023/08/30 09:33:05;;;;;;;3.70;3.40;;;;;;;19.15;57.89;94961.88;4935968;28;20201;-82
2023/08/30 09:35:31;;;;;;;4.03;3.67;;;;;;;19.05;58.12;94954.47;4952162;28;20583;-82
2023/08/30 09:37:56;;;;;;;5.57;4.22;;;;;;;18.76;58.82;94965.59;4952599;28;20185;-82
2023/08/30 09:40:22;;;;;;;4.07;3.67;;;;;;;18.82;60.71;94956.88;4952951;28;20197;-82
2023/08/30 09:42:48;;;;;;;3.60;3.30;;;;;;;18.82;60.38;94960.31;4952976;28;20209;-82
2023/08/30 09:45:22;;;;;;;3.78;3.53;;;;;;;18.66;61.18;94966.06;4952536;28;20192;-82
2023/08/30 09:47:48;;;;;;;3.70;3.40;;;;;;;18.68;61.46;94964.84;4952109;28;20189;-83
2023/08/30 09:50:17;;;;;;;3.60;3.30;;;;;;;18.61;61.88;94956.13;4936564;28;20189;-82
2023/08/30 09:52:42;;;;;;;5.05;3.83;;;;;;;18.20;62.48;94955.75;4947709;28;20707;-83
2023/08/30 09:55:09;;;;;;;4.05;3.53;;;;;;;18.20;64.17;94959.19;4936711;28;20197;-82
2023/08/30 09:57:34;;;;;;;4.35;4.05;;;;;;;18.09;64.62;94951.94;4951506;28;20267;-83
2023/08/30 10:00:00;;;;;;;4.13;3.83;;;;;;;18.09;64.30;94950.13;4951338;28;20750;-83
2023/08/30 10:02:26;;;;;;;4.28;3.97;;;;;;;17.98;63.90;94953.41;4935794;28;20212;-82
2023/08/30 10:04:51;;;;;;;5.82;3.55;;;;;;;18.19;64.37;94954.13;4952200;28;20189;-83
2023/08/30 10:07:17;;;;;;;4.35;3.70;;;;;;;17.88;64.93;94945.16;4951918;28;20211;-82
2023/08/30 10:09:43;;;;;;;4.40;4.00;;;;;;;18.06;64.58;94939.25;4964649;28;20704;-83
2023/08/30 10:12:10;;;;;;;4.28;3.90;;;;;;;18.29;63.53;94954.50;4952241;28;20209;-82
2023/08/30 10:14:36;;;;;;;4.50;4.18;;;;;;;18.25;64.58;94946.22;4951717;28;20247;-83
2023/08/30 10:17:03;;;;;;;7.55;4.10;;;;;;;18.60;61.98;94936.13;4951193;29;20287;-82
2023/08/30 10:19:29;;;;;;;4.20;3.60;;;;;;;18.78;61.48;94938.06;4951714;28;20209;-82
2023/08/30 10:21:57;;;;;;;4.95;3.58;;;;;;;18.68;61.34;94927.22;4935716;28;20192;-83
2023/08/30 10:24:23;;;;;;;3.88;3.47;;;;;;;19.08;60.78;94930.38;4963209;28;20272;-82
2023/08/30 10:26:49;;;;;;;3.42;3.13;;;;;;;18.98;59.78;94926.59;4951057;28;20566;-82
2023/08/30 10:29:15;;;;;;;3.72;2.85;;;;;;;19.21;59.84;94926.81;4951573;28;20212;-83
2023/08/30 10:31:41;;;;;;;3.70;3.40;;;;;;;19.04;58.63;94931.00;4951363;28;20213;-83
2023/08/30 10:34:16;;;;;;;3.25;2.53;;;;;;;19.04;57.65;94926.53;4951205;28;20189;-82
2023/08/30 10:36:43;;;;;;;3.28;2.80;;;;;;;19.04;57.41;94925.75;4949076;29;20558;-83
2023/08/30 10:39:13;;;;;;;2.97;2.78;;;;;;;19.13;57.95;94930.50;4951321;28;20248;-83
2023/08/30 10:41:54;;;;;;;4.93;2.67;;;;;;;19.35;57.77;94924.88;4951671;28;20195;-82
2023/08/30 10:44:21;;;;;;;2.42;2.15;;;;;;;19.64;57.67;94928.66;4951526;28;20193;-82
2023/08/30 10:46:52;;;;;;;2.95;2.58;;;;;;;19.47;55.74;94925.75;4955842;28;20284;-84
2023/08/30 10:49:18;;;;;;;2.97;2.78;;;;;;;19.60;56.64;94927.47;4955633;28;20263;-83
2023/08/30 10:51:44;;;;;;;4.03;2.65;;;;;;;19.80;57.03;94925.44;4951170;28;20228;-83
2023/08/30 10:54:10;;;;;;;2.63;2.42;;;;;;;19.84;55.50;94926.63;4935478;28;20268;-82
2023/08/30 10:56:46;;;;;;;4.10;2.40;;;;;;;19.82;53.99;94933.94;4966948;28;20197;-83
2023/08/30 10:59:16;;;;;;;2.85;2.55;;;;;;;20.00;54.42;94930.50;4950428;28;20205;-83
2023/08/30 11:01:43;;;;;;;3.13;2.60;;;;;;;19.88;53.80;94919.06;4950816;28;20186;-83
2023/08/30 11:04:09;;;;;;;2.40;2.20;;;;;;;19.87;53.82;94923.53;4948517;29;20204;-82
2023/08/30 11:06:38;;;;;;;3.75;2.65;;;;;;;19.83;52.81;94924.19;4952267;28;20181;-83
2023/08/30 11:09:03;;;;;;;2.85;2.20;;;;;;;19.95;52.24;94932.97;4951105;28;20232;-84
2023/08/30 11:11:29;;;;;;;2.63;2.42;;;;;;;20.22;53.52;94923.72;4951512;28;20211;-84
2023/08/30 11:13:54;;;;;;;2.88;2.45;;;;;;;20.44;51.60;94921.44;4951546;28;20185;-84
2023/08/30 11:16:22;;;;;;;3.45;2.15;;;;;;;20.54;50.43;94924.34;4951283;28;20189;-83
2023/08/30 11:18:49;;;;;;;2.17;1.92;;;;;;;20.85;50.48;94915.38;4955456;28;20209;-83
2023/08/30 11:21:14;;;;;;;2.90;2.50;;;;;;;21.12;50.19;94912.31;4939381;28;20221;-83
2023/08/30 11:23:39;;;;;;;2.38;2.17;;;;;;;20.91;48.55;94911.00;4938997;29;20255;-82
2023/08/30 11:26:05;;;;;;;2.65;2.00;;;;;;;20.46;50.56;94911.47;4954775;28;20192;-82
2023/08/30 11:28:30;;;;;;;3.45;3.15;;;;;;;20.64;51.16;94900.84;4954621;28;20299;-82
2023/08/30 11:30:55;;;;;;;2.45;2.03;;;;;;;20.36;51.88;94906.69;4954652;29;20281;-84